createdAt,value
2017-11-28T00:01:07.112Z,88.76
2017-11-28T00:03:34.867Z,88.63
2017-11-28T00:06:02.736Z,88.14
2017-11-28T00:08:30.489Z,87.96
2017-11-28T00:10:58.265Z,87.69
2017-11-28T00:13:26.090Z,87.65
2017-11-28T00:15:53.853Z,87.55
2017-11-28T00:18:21.729Z,87.98
2017-11-28T00:20:49.483Z,87.85
2017-11-28T00:23:17.271Z,87.63
2017-11-28T00:25:45.113Z,87.36
2017-11-28T00:28:12.910Z,87.27
2017-11-28T00:30:40.663Z,87.08
2017-11-28T00:33:08.431Z,87.33
2017-11-28T00:35:36.159Z,87.19
2017-11-28T00:38:03.872Z,87.73
2017-11-28T00:40:31.689Z,87.02
2017-11-28T00:42:59.406Z,86.45
2017-11-28T00:45:27.199Z,86.11
2017-11-28T00:47:55.004Z,85.89
2017-11-28T00:50:22.707Z,85.74
2017-11-28T00:52:50.470Z,85.44
2017-11-28T00:55:18.211Z,85.12
2017-11-28T00:57:46.014Z,85.81
2017-11-28T01:00:13.729Z,85.43
2017-11-28T01:02:41.499Z,85.13
2017-11-28T01:05:09.378Z,84.79
2017-11-28T01:07:37.153Z,85.47
2017-11-28T01:10:04.941Z,85.91
2017-11-28T01:12:32.769Z,85.49
2017-11-28T01:15:00.550Z,85.03
2017-11-28T01:17:28.333Z,84.92
2017-11-28T01:19:56.079Z,84.70
2017-11-28T01:22:23.980Z,84.50
2017-11-28T01:24:51.716Z,84.21
2017-11-28T01:27:19.440Z,84.84
2017-11-28T01:29:47.228Z,85.28
2017-11-28T01:32:15.008Z,85.43
2017-11-28T01:34:42.815Z,85.61
2017-11-28T01:37:10.550Z,85.53
2017-11-28T01:39:38.454Z,86.15
2017-11-28T01:42:06.170Z,86.48
2017-11-28T01:44:33.885Z,86.53
2017-11-28T01:47:01.693Z,86.34
2017-11-28T01:49:29.465Z,86.30
2017-11-28T01:51:57.272Z,86.48
2017-11-28T01:54:25.139Z,86.54
2017-11-28T01:56:52.982Z,86.57
2017-11-28T01:59:20.730Z,86.93
2017-11-28T02:01:48.559Z,87.35
2017-11-28T02:04:16.400Z,87.64
2017-11-28T02:06:44.174Z,87.56
2017-11-28T02:09:12.009Z,87.79
2017-11-28T02:11:39.818Z,87.19
2017-11-28T02:14:07.606Z,87.36
2017-11-28T02:16:35.448Z,87.11
2017-11-28T02:19:03.283Z,87.19
2017-11-28T02:21:31.121Z,87.61
2017-11-28T02:23:58.953Z,87.15
2017-11-28T02:26:26.776Z,86.81
2017-11-28T02:28:54.577Z,86.76
2017-11-28T02:31:22.427Z,85.48
2017-11-28T02:33:50.276Z,86.03
2017-11-28T02:36:18.085Z,85.83
2017-11-28T02:38:45.926Z,86.13
2017-11-28T02:41:22.367Z,86.67
2017-11-28T02:43:50.910Z,86.35
2017-11-28T02:46:19.628Z,85.96
2017-11-28T02:48:59.219Z,85.75
2017-11-28T02:51:27.194Z,86.24
2017-11-28T02:53:55.018Z,86.03
2017-11-28T02:56:23.478Z,85.91
2017-11-28T02:59:06.163Z,86.02
2017-11-28T03:01:41.251Z,85.67
2017-11-28T03:04:09.124Z,85.62
2017-11-28T03:06:36.965Z,85.16
2017-11-28T03:09:05.733Z,85.61
2017-11-28T03:11:33.573Z,85.68
2017-11-28T03:16:58.441Z,85.60
2017-11-28T03:19:28.191Z,85.90
2017-11-28T03:21:59.824Z,85.56
2017-11-28T03:27:40.731Z,85.64
2017-11-28T03:30:19.256Z,85.88
2017-11-28T03:32:47.130Z,85.98
2017-11-28T03:35:14.993Z,86.22
2017-11-28T03:37:42.763Z,86.26
2017-11-28T03:40:10.558Z,86.37
2017-11-28T03:42:38.402Z,86.68
2017-11-28T03:48:04.499Z,86.91
2017-11-28T03:50:32.356Z,86.20
2017-11-28T03:53:00.193Z,85.94
2017-11-28T03:55:28.091Z,85.64
2017-11-28T03:57:55.875Z,85.71
2017-11-28T04:00:26.449Z,85.84
2017-11-28T04:02:54.316Z,85.93
2017-11-28T04:05:22.147Z,86.16
2017-11-28T04:07:49.962Z,86.06
2017-11-28T04:10:17.765Z,85.81
2017-11-28T04:12:45.594Z,86.01
2017-11-28T04:15:13.462Z,85.46
2017-11-28T04:17:41.361Z,86.07
2017-11-28T04:20:09.222Z,85.90
2017-11-28T04:22:37.023Z,85.83
2017-11-28T04:25:04.836Z,85.69
2017-11-28T04:27:32.688Z,86.04
2017-11-28T04:30:00.526Z,86.24
2017-11-28T04:32:28.381Z,86.23
2017-11-28T04:34:56.270Z,86.62
2017-11-28T04:37:24.080Z,86.65
2017-11-28T04:39:51.960Z,87.01
2017-11-28T04:42:19.781Z,87.45
2017-11-28T04:44:47.606Z,86.98
2017-11-28T04:47:15.424Z,86.75
2017-11-28T04:49:43.268Z,86.59
2017-11-28T04:52:11.150Z,86.20
2017-11-28T04:54:39.041Z,86.47
2017-11-28T04:57:06.889Z,86.42
2017-11-28T04:59:34.633Z,86.13
2017-11-28T05:02:02.445Z,86.14
2017-11-28T05:04:30.270Z,85.94
2017-11-28T05:06:58.290Z,85.81
2017-11-28T05:09:26.168Z,85.99
2017-11-28T05:11:53.970Z,86.37
2017-11-28T05:14:21.845Z,86.51
2017-11-28T05:16:49.634Z,86.31
2017-11-28T05:19:17.418Z,87.01
2017-11-28T05:21:45.256Z,87.41
2017-11-28T05:24:13.606Z,87.48
2017-11-28T05:26:41.439Z,86.42
2017-11-28T05:29:10.267Z,86.17
2017-11-28T05:31:38.112Z,86.44
2017-11-28T05:34:06.036Z,86.81
2017-11-28T05:36:33.965Z,86.87
2017-11-28T05:39:01.794Z,87.29
2017-11-28T05:41:29.605Z,86.92
2017-11-28T05:43:57.493Z,87.14
2017-11-28T05:46:25.340Z,86.93
2017-11-28T05:48:53.239Z,87.18
2017-11-28T05:51:21.066Z,87.51
2017-11-28T05:53:48.829Z,87.20
2017-11-28T05:56:16.681Z,87.09
2017-11-28T05:58:44.505Z,87.60
2017-11-28T06:01:13.274Z,87.85
2017-11-28T06:03:41.022Z,87.49
2017-11-28T06:06:08.825Z,87.41
2017-11-28T06:08:36.644Z,87.56
2017-11-28T06:11:04.459Z,87.54
2017-11-28T06:13:32.346Z,87.11
2017-11-28T06:16:00.181Z,87.52
2017-11-28T06:18:28.193Z,88.08
2017-11-28T06:20:56.056Z,88.29
2017-11-28T06:23:24.588Z,88.13
2017-11-28T06:25:52.617Z,87.66
2017-11-28T06:28:20.574Z,87.51
2017-11-28T06:30:48.415Z,87.26
2017-11-28T06:33:16.279Z,87.54
2017-11-28T06:35:44.120Z,87.57
2017-11-28T06:38:11.944Z,87.54
2017-11-28T06:40:39.751Z,87.64
2017-11-28T06:43:07.864Z,87.76
2017-11-28T06:45:36.558Z,87.63
2017-11-28T06:48:04.396Z,87.03
2017-11-28T06:50:32.266Z,87.36
2017-11-28T06:53:00.149Z,87.81
2017-11-28T06:55:28.052Z,87.73
2017-11-28T06:57:55.873Z,87.14
2017-11-28T07:00:23.762Z,86.94
2017-11-28T07:02:51.537Z,86.62
2017-11-28T07:05:19.416Z,86.71
2017-11-28T07:07:47.280Z,86.41
2017-11-28T07:10:15.051Z,86.61
2017-11-28T07:12:42.877Z,86.71
2017-11-28T07:15:10.678Z,86.55
2017-11-28T07:17:39.714Z,86.09
2017-11-28T07:20:07.670Z,85.81
2017-11-28T07:22:35.463Z,86.03
2017-11-28T07:25:04.979Z,86.05
2017-11-28T07:27:32.811Z,85.80
2017-11-28T07:30:00.681Z,85.99
2017-11-28T07:32:28.641Z,86.43
2017-11-28T07:34:56.700Z,86.09
2017-11-28T07:37:24.573Z,86.65
2017-11-28T07:39:52.425Z,86.95
2017-11-28T07:42:20.217Z,86.54
2017-11-28T07:44:47.977Z,86.31
2017-11-28T07:47:15.773Z,85.76
2017-11-28T07:49:43.497Z,86.63
2017-11-28T07:52:11.382Z,85.90
2017-11-28T07:54:39.222Z,84.64
2017-11-28T07:57:06.987Z,84.40
2017-11-28T07:59:34.820Z,85.93
2017-11-28T08:02:02.682Z,85.29
2017-11-28T08:04:30.531Z,84.49
2017-11-28T08:06:58.358Z,83.76
2017-11-28T08:09:26.181Z,83.48
2017-11-28T08:11:54.052Z,84.45
2017-11-28T08:14:21.880Z,85.22
2017-11-28T08:16:49.710Z,84.53
2017-11-28T08:19:17.517Z,83.32
2017-11-28T08:21:45.325Z,83.67
2017-11-28T08:24:13.258Z,84.28
2017-11-28T08:26:41.077Z,84.57
2017-11-28T08:29:08.915Z,83.36
2017-11-28T08:31:36.787Z,83.98
2017-11-28T08:34:04.734Z,84.17
2017-11-28T08:36:32.575Z,85.00
2017-11-28T08:39:00.479Z,85.26
2017-11-28T08:41:28.320Z,85.18
2017-11-28T08:43:56.137Z,84.60
2017-11-28T08:46:24.000Z,83.83
2017-11-28T08:48:51.924Z,83.58
2017-11-28T08:51:19.709Z,83.32
2017-11-28T08:53:47.522Z,82.58
2017-11-28T08:56:15.317Z,81.57
2017-11-28T08:58:43.270Z,80.55
2017-11-28T09:01:11.171Z,79.54
2017-11-28T09:03:39.046Z,79.06
2017-11-28T09:06:06.851Z,78.83
2017-11-28T09:08:34.642Z,78.34
2017-11-28T09:11:02.424Z,76.58
2017-11-28T09:13:30.234Z,74.57
2017-11-28T09:15:57.971Z,73.86
2017-11-28T09:18:25.807Z,74.31
2017-11-28T09:20:53.574Z,73.99
2017-11-28T09:23:21.375Z,76.32
2017-11-28T09:25:49.173Z,75.81
2017-11-28T09:28:17.063Z,76.60
2017-11-28T09:30:44.815Z,75.36
2017-11-28T09:33:12.633Z,72.92
2017-11-28T09:35:40.469Z,73.36
2017-11-28T09:38:08.246Z,72.74
2017-11-28T09:40:36.056Z,73.40
2017-11-28T09:43:03.814Z,72.56
2017-11-28T09:45:31.593Z,72.48
2017-11-28T09:47:59.398Z,72.32
2017-11-28T09:50:27.168Z,71.19
2017-11-28T09:52:54.930Z,68.83
2017-11-28T09:55:22.784Z,70.05
2017-11-28T09:57:50.809Z,68.88
2017-11-28T10:00:19.020Z,67.99
2017-11-28T10:02:46.746Z,67.20
2017-11-28T10:05:14.460Z,67.95
2017-11-28T10:07:42.246Z,68.27
2017-11-28T10:10:10.001Z,69.49
2017-11-28T10:12:37.839Z,67.86
2017-11-28T10:15:05.627Z,62.22
2017-11-28T10:17:33.599Z,62.92
2017-11-28T10:20:01.416Z,62.52
2017-11-28T10:22:29.176Z,64.18
2017-11-28T10:24:56.955Z,67.96
2017-11-28T10:27:24.694Z,68.67
2017-11-28T10:29:52.462Z,68.63
2017-11-28T10:32:20.365Z,68.24
2017-11-28T10:34:48.472Z,68.52
2017-11-28T10:37:16.319Z,69.70
2017-11-28T10:39:44.111Z,66.21
2017-11-28T10:42:11.857Z,65.29
2017-11-28T10:47:06.694Z,65.73
2017-11-28T10:49:34.493Z,65.11
2017-11-28T10:52:02.258Z,66.73
2017-11-28T10:54:30.083Z,66.56
2017-11-28T10:56:57.933Z,67.53
2017-11-28T10:59:25.660Z,66.58
2017-11-28T11:01:53.444Z,65.91
2017-11-28T11:04:21.232Z,64.21
2017-11-28T11:06:49.018Z,62.92
2017-11-28T11:09:17.155Z,62.60
2017-11-28T11:11:44.879Z,61.65
2017-11-28T11:14:12.671Z,60.48
2017-11-28T11:16:40.555Z,64.41
2017-11-28T11:19:08.298Z,66.78
2017-11-28T11:21:36.093Z,66.49
2017-11-28T11:24:03.855Z,67.65
2017-11-28T11:26:31.668Z,65.41
2017-11-28T11:29:00.464Z,65.83
2017-11-28T11:31:28.197Z,62.69
2017-11-28T11:33:56.012Z,62.88
2017-11-28T11:36:23.792Z,64.00
2017-11-28T11:38:51.538Z,63.03
2017-11-28T11:41:19.319Z,64.44
2017-11-28T11:43:47.125Z,62.73
2017-11-28T11:46:14.855Z,61.53
2017-11-28T11:48:42.577Z,60.05
2017-11-28T11:51:10.519Z,60.04
2017-11-28T11:53:38.251Z,61.51
2017-11-28T11:56:06.014Z,60.60
2017-11-28T11:58:33.804Z,60.77
2017-11-28T12:01:01.600Z,60.34
2017-11-28T12:03:29.430Z,61.53
2017-11-28T12:05:57.210Z,63.04
2017-11-28T12:08:24.974Z,62.50
2017-11-28T12:10:52.783Z,63.73
2017-11-28T12:13:20.551Z,63.80
2017-11-28T12:15:48.336Z,62.64
2017-11-28T12:18:16.163Z,62.39
2017-11-28T12:20:43.964Z,62.20
2017-11-28T12:23:11.727Z,62.11
2017-11-28T12:25:39.475Z,61.17
2017-11-28T12:28:07.255Z,60.42
2017-11-28T12:30:35.099Z,61.66
2017-11-28T12:33:03.001Z,60.58
2017-11-28T12:35:30.967Z,60.66
2017-11-28T12:37:58.891Z,59.04
2017-11-28T12:40:26.835Z,59.29
2017-11-28T12:42:54.642Z,59.50
2017-11-28T12:45:22.429Z,61.58
2017-11-28T12:47:50.216Z,61.61
2017-11-28T12:50:18.071Z,61.39
2017-11-28T12:52:45.842Z,61.18
2017-11-28T12:55:13.656Z,61.72
2017-11-28T12:57:41.529Z,63.13
2017-11-28T13:00:09.423Z,62.35
2017-11-28T13:02:38.166Z,62.14
2017-11-28T13:05:05.910Z,61.83
2017-11-28T13:07:34.185Z,64.38
2017-11-28T13:10:01.995Z,64.77
2017-11-28T13:12:29.815Z,64.81
2017-11-28T13:14:57.656Z,64.58
2017-11-28T13:17:25.486Z,63.37
2017-11-28T13:19:55.065Z,63.58
2017-11-28T13:22:22.916Z,63.82
2017-11-28T13:24:50.712Z,62.98
2017-11-28T13:27:19.959Z,63.97
2017-11-28T13:29:47.747Z,65.13
2017-11-28T13:32:15.561Z,64.08
2017-11-28T13:34:43.385Z,64.40
2017-11-28T13:37:11.331Z,65.87
2017-11-28T13:39:39.460Z,63.61
2017-11-28T13:42:07.324Z,64.70
2017-11-28T13:44:35.078Z,65.40
2017-11-28T13:47:02.907Z,63.47
2017-11-28T13:49:30.657Z,64.24
2017-11-28T13:51:58.536Z,66.09
2017-11-28T13:54:26.441Z,66.62
2017-11-28T13:56:54.200Z,66.84
2017-11-28T13:59:22.026Z,67.88
2017-11-28T14:01:49.810Z,69.03
2017-11-28T14:04:17.661Z,70.00
2017-11-28T14:06:45.370Z,69.44
2017-11-28T14:09:13.507Z,69.42
2017-11-28T14:11:41.255Z,70.51
2017-11-28T14:14:09.072Z,69.72
2017-11-28T14:16:36.960Z,70.16
2017-11-28T14:19:04.735Z,71.13
2017-11-28T14:21:33.575Z,72.01
2017-11-28T14:24:06.908Z,72.03
2017-11-28T14:26:54.346Z,73.89
2017-11-28T14:29:22.229Z,74.80
2017-11-28T14:34:52.889Z,75.28
2017-11-28T14:37:20.737Z,74.26
2017-11-28T14:39:48.732Z,75.39
2017-11-28T14:45:20.125Z,75.27
2017-11-28T14:47:48.052Z,76.13
2017-11-28T14:50:15.975Z,75.84
2017-11-28T14:52:44.192Z,76.13
2017-11-28T14:55:17.635Z,76.33
2017-11-28T15:00:52.844Z,77.27
2017-11-28T15:03:41.280Z,77.50
2017-11-28T15:06:14.615Z,78.20
2017-11-28T15:08:48.040Z,78.53
2017-11-28T15:14:36.011Z,78.67
2017-11-28T15:17:04.651Z,77.76
2017-11-28T15:19:33.556Z,78.56
2017-11-28T15:25:05.677Z,78.80
2017-11-28T15:27:33.529Z,79.46
2017-11-28T15:30:01.882Z,79.91
2017-11-28T15:32:29.817Z,80.56
2017-11-28T15:34:57.582Z,80.17
2017-11-28T15:37:25.601Z,80.38
2017-11-28T15:39:53.509Z,80.99
2017-11-28T15:42:21.312Z,80.78
2017-11-28T15:44:49.154Z,80.10
2017-11-28T15:47:16.903Z,80.19
2017-11-28T15:49:45.080Z,79.87
2017-11-28T15:52:12.879Z,81.08
2017-11-28T15:54:40.654Z,81.37
2017-11-28T15:57:08.553Z,81.28
2017-11-28T15:59:36.379Z,81.57
2017-11-28T16:02:04.393Z,81.23
2017-11-28T16:04:32.160Z,81.52
2017-11-28T16:06:59.986Z,81.49
2017-11-28T16:09:27.874Z,82.04
2017-11-28T16:11:55.768Z,82.97
2017-11-28T16:14:23.700Z,82.67
2017-11-28T16:16:51.577Z,82.42
2017-11-28T16:19:19.377Z,82.16
2017-11-28T16:21:47.235Z,82.62
2017-11-28T16:24:15.003Z,82.57
2017-11-28T16:26:42.806Z,83.09
2017-11-28T16:29:11.497Z,82.67
2017-11-28T16:31:39.424Z,82.85
2017-11-28T16:34:07.270Z,82.46
2017-11-28T16:36:35.105Z,82.85
2017-11-28T16:39:02.862Z,83.41
2017-11-28T16:41:30.604Z,83.35
2017-11-28T16:44:00.020Z,82.81
2017-11-28T16:46:28.357Z,82.54
2017-11-28T16:48:56.146Z,82.63
2017-11-28T16:51:23.886Z,82.17
2017-11-28T16:53:51.703Z,81.80
2017-11-28T16:56:19.698Z,82.20
2017-11-28T16:58:47.481Z,82.23
2017-11-28T17:01:15.306Z,82.26
2017-11-28T17:03:43.132Z,82.01
2017-11-28T17:06:12.011Z,82.42
2017-11-28T17:08:40.042Z,82.46
2017-11-28T17:11:07.960Z,82.23
2017-11-28T17:13:35.963Z,83.53
2017-11-28T17:16:03.853Z,83.55
2017-11-28T17:18:31.728Z,83.11
2017-11-28T17:20:59.905Z,83.53
2017-11-28T17:23:27.688Z,83.96
2017-11-28T17:25:55.529Z,83.88
2017-11-28T17:28:23.304Z,84.23
2017-11-28T17:30:51.845Z,84.64
2017-11-28T17:33:19.778Z,85.55
2017-11-28T17:35:47.649Z,85.02
2017-11-28T17:38:16.258Z,84.90
2017-11-28T17:40:44.083Z,84.70
2017-11-28T17:43:12.085Z,84.94
2017-11-28T17:45:39.966Z,85.14
2017-11-28T17:48:07.853Z,85.02
2017-11-28T17:50:36.484Z,84.76
2017-11-28T17:53:04.659Z,84.71
2017-11-28T17:55:32.522Z,84.69
2017-11-28T17:58:00.437Z,85.95
2017-11-28T18:00:28.279Z,85.93
2017-11-28T18:02:56.187Z,85.40
2017-11-28T18:05:24.084Z,84.80
2017-11-28T18:07:51.959Z,84.64
2017-11-28T18:10:19.836Z,84.63
2017-11-28T18:12:49.005Z,85.56
2017-11-28T18:15:18.341Z,85.97
2017-11-28T18:17:46.247Z,85.88
2017-11-28T18:20:14.392Z,85.88
2017-11-28T18:22:43.097Z,85.16
2017-11-28T18:25:12.894Z,84.71
2017-11-28T18:27:40.737Z,85.48
2017-11-28T18:30:09.237Z,85.31
2017-11-28T18:32:38.121Z,85.29
2017-11-28T18:35:05.912Z,85.80
2017-11-28T18:37:33.718Z,85.42
2017-11-28T18:40:02.859Z,85.28
2017-11-28T18:42:32.381Z,85.14
2017-11-28T18:45:00.460Z,85.79
2017-11-28T18:47:28.435Z,85.94
2017-11-28T18:49:56.298Z,85.96
2017-11-28T18:52:24.322Z,86.00
2017-11-28T18:54:52.169Z,85.70
2017-11-28T18:57:20.032Z,85.46
2017-11-28T18:59:47.812Z,85.76
2017-11-28T19:02:15.571Z,86.04
2017-11-28T19:04:43.522Z,86.30
2017-11-28T19:07:11.739Z,87.48
2017-11-28T19:09:39.782Z,87.34
2017-11-28T19:12:07.793Z,87.18
2017-11-28T19:14:38.126Z,86.69
2017-11-28T19:17:06.308Z,86.09
2017-11-28T19:19:34.218Z,86.18
2017-11-28T19:22:03.680Z,86.49
2017-11-28T19:24:31.703Z,86.24
2017-11-28T19:27:02.569Z,86.47
2017-11-28T19:29:31.377Z,86.18
2017-11-28T19:31:59.705Z,86.29
2017-11-28T19:34:30.156Z,86.71
2017-11-28T19:36:59.744Z,86.92
2017-11-28T19:39:27.734Z,86.67
2017-11-28T19:41:57.049Z,87.22
2017-11-28T19:44:25.364Z,87.15
2017-11-28T19:46:53.457Z,87.46
2017-11-28T19:49:21.411Z,87.04
2017-11-28T19:51:50.116Z,86.97
2017-11-28T19:54:20.072Z,87.16
2017-11-28T19:56:48.052Z,86.84
2017-11-28T19:59:17.106Z,86.95
2017-11-28T20:01:44.908Z,87.36
2017-11-28T20:04:13.312Z,88.27
2017-11-28T20:06:41.429Z,88.14
2017-11-28T20:09:09.320Z,87.61
2017-11-28T20:11:37.243Z,87.51
2017-11-28T20:14:05.056Z,87.24
2017-11-28T20:16:33.293Z,87.03
2017-11-28T20:19:03.048Z,87.50
2017-11-28T20:21:31.231Z,87.66
2017-11-28T20:23:59.540Z,88.08
2017-11-28T20:26:28.622Z,88.07
2017-11-28T20:28:56.929Z,88.01
2017-11-28T20:31:24.770Z,88.36
2017-11-28T20:33:53.714Z,88.31
2017-11-28T20:36:21.572Z,88.45
2017-11-28T20:38:49.568Z,88.54
2017-11-28T20:41:17.654Z,88.83
2017-11-28T20:43:45.526Z,88.48
2017-11-28T20:46:14.180Z,88.36
2017-11-28T20:48:42.165Z,89.00
2017-11-28T20:51:10.016Z,88.08
2017-11-28T20:53:37.993Z,87.74
2017-11-28T20:56:05.798Z,87.71
2017-11-28T20:58:33.783Z,87.69
2017-11-28T21:01:01.624Z,87.67
2017-11-28T21:03:29.531Z,88.12
2017-11-28T21:05:57.387Z,87.77
2017-11-28T21:08:25.278Z,87.83
2017-11-28T21:10:53.092Z,87.64
2017-11-28T21:13:21.015Z,87.76
2017-11-28T21:15:48.758Z,87.88
2017-11-28T21:18:16.544Z,87.84
2017-11-28T21:20:44.321Z,87.99
2017-11-28T21:23:12.105Z,88.11
2017-11-28T21:25:40.157Z,87.85
2017-11-28T21:28:07.914Z,87.83
2017-11-28T21:30:35.661Z,87.76
2017-11-28T21:33:03.488Z,88.24
2017-11-28T21:35:31.235Z,88.70
2017-11-28T21:37:59.159Z,89.42
2017-11-28T21:40:26.926Z,89.15
2017-11-28T21:42:54.721Z,89.16
2017-11-28T21:45:22.478Z,88.94
2017-11-28T21:47:50.241Z,88.72
2017-11-28T21:50:18.043Z,88.17
2017-11-28T21:52:45.843Z,88.09
2017-11-28T21:55:13.670Z,88.14
2017-11-28T21:57:41.448Z,88.21
2017-11-28T22:00:09.256Z,88.13
2017-11-28T22:02:37.088Z,88.22
2017-11-28T22:05:05.024Z,88.29
2017-11-28T22:07:32.855Z,88.05
2017-11-28T22:10:00.632Z,88.95
2017-11-28T22:12:28.394Z,88.57
2017-11-28T22:14:56.205Z,88.45
2017-11-28T22:17:24.102Z,88.44
2017-11-28T22:19:51.837Z,88.16
2017-11-28T22:22:19.704Z,88.12
2017-11-28T22:24:47.508Z,88.01
2017-11-28T22:27:15.801Z,87.48
2017-11-28T22:29:43.578Z,88.12
2017-11-28T22:32:12.092Z,88.39
2017-11-28T22:34:39.889Z,88.26
2017-11-28T22:37:07.796Z,88.41
2017-11-28T22:39:35.609Z,88.11
2017-11-28T22:42:03.349Z,87.85
2017-11-28T22:44:31.250Z,88.40
2017-11-28T22:46:59.925Z,88.33
2017-11-28T22:49:27.748Z,88.42
2017-11-28T22:51:55.545Z,88.58
2017-11-28T22:54:23.282Z,88.70
2017-11-28T22:56:51.074Z,89.02
2017-11-28T22:59:19.139Z,89.66
2017-11-28T23:01:47.021Z,89.65
2017-11-28T23:04:14.831Z,90.14
2017-11-28T23:06:42.681Z,90.05
2017-11-28T23:09:10.507Z,89.84
2017-11-28T23:11:38.362Z,90.15
2017-11-28T23:14:06.165Z,89.46
2017-11-28T23:16:34.147Z,89.31
2017-11-28T23:19:01.921Z,89.11
2017-11-28T23:21:29.743Z,89.33
2017-11-28T23:23:57.506Z,89.54
2017-11-28T23:26:25.317Z,89.25
2017-11-28T23:28:53.097Z,89.37
2017-11-28T23:31:20.906Z,89.48
2017-11-28T23:33:48.648Z,89.85
2017-11-28T23:36:16.398Z,90.39
2017-11-28T23:38:44.237Z,90.20
2017-11-28T23:41:11.946Z,90.46
2017-11-28T23:43:39.740Z,90.53
2017-11-28T23:46:07.587Z,89.83
2017-11-28T23:48:35.399Z,89.86
2017-11-28T23:51:03.129Z,89.73
2017-11-28T23:53:30.947Z,90.20
2017-11-28T23:55:58.695Z,89.91
2017-11-28T23:58:26.482Z,89.61
